sensor_id;sensor_type;location;lat;lon;timestamp;P1;durP1;ratioP1;P2;durP2;ratioP2
2001;SDS011;1003;48.002;7.788;2022-12-18T00:01:15;37.43;;;14.30;;
2001;SDS011;1003;48.002;7.788;2022-12-18T00:03:45;42.97;;;14.77;;
2001;SDS011;1003;48.002;7.788;2022-12-18T00:06:13;37.80;;;13.87;;
2001;SDS011;1003;48.002;7.788;2022-12-18T00:08:40;42.00;;;13.40;;
2001;SDS011;1003;48.002;7.788;2022-12-18T00:11:08;49.03;;;14.57;;
2001;SDS011;1003;48.002;7.788;2022-12-18T00:13:38;41.43;;;13.27;;
2001;SDS011;1003;48.002;7.788;2022-12-18T00:16:06;36.90;;;12.13;;
2001;SDS011;1003;48.002;7.788;2022-12-18T00:18:38;36.63;;;13.33;;
2001;SDS011;1003;48.002;7.788;2022-12-18T00:21:06;32.70;;;12.50;;
2001;SDS011;1003;48.002;7.788;2022-12-18T00:23:36;44.67;;;13.90;;
2001;SDS011;1003;48.002;7.788;2022-12-18T00:26:04;34.10;;;12.60;;
2001;SDS011;1003;48.002;7.788;2022-12-18T00:28:34;42.93;;;14.10;;
2001;SDS011;1003;48.002;7.788;2022-12-18T00:31:01;36.43;;;12.67;;
2001;SDS011;1003;48.002;7.788;2022-12-18T00:33:30;39.87;;;14.20;;
2001;SDS011;1003;48.002;7.788;2022-12-18T00:36:01;39.20;;;13.00;;
2001;SDS011;1003;48.002;7.788;2022-12-18T00:38:29;40.10;;;12.30;;
2001;SDS011;1003;48.002;7.788;2022-12-18T00:40:56;35.27;;;12.10;;
2001;SDS011;1003;48.002;7.788;2022-12-18T00:43:23;35.67;;;12.67;;
2001;SDS011;1003;48.002;7.788;2022-12-18T00:45:49;38.43;;;11.93;;
2001;SDS011;1003;48.002;7.788;2022-12-18T00:48:17;39.37;;;13.00;;
2001;SDS011;1003;48.002;7.788;2022-12-18T00:50:44;35.30;;;11.77;;
2001;SDS011;1003;48.002;7.788;2022-12-18T00:53:13;43.57;;;13.23;;
2001;SDS011;1003;48.002;7.788;2022-12-18T00:55:40;38.67;;;13.17;;
2001;SDS011;1003;48.002;7.788;2022-12-18T00:58:08;40.27;;;12.77;;
2001;SDS011;1003;48.002;7.788;2022-12-18T01:00:37;39.23;;;12.77;;
2001;SDS011;1003;48.002;7.788;2022-12-18T01:03:04;31.97;;;11.53;;
2001;SDS011;1003;48.002;7.788;2022-12-18T01:05:32;37.87;;;11.77;;
2001;SDS011;1003;48.002;7.788;2022-12-18T01:07:59;37.30;;;12.43;;
2001;SDS011;1003;48.002;7.788;2022-12-18T01:10:28;34.60;;;11.83;;
2001;SDS011;1003;48.002;7.788;2022-12-18T01:12:55;41.13;;;12.83;;
2001;SDS011;1003;48.002;7.788;2022-12-18T01:15:22;37.73;;;11.43;;
2001;SDS011;1003;48.002;7.788;2022-12-18T01:17:50;43.50;;;13.13;;
2001;SDS011;1003;48.002;7.788;2022-12-18T01:20:18;34.83;;;11.03;;
2001;SDS011;1003;48.002;7.788;2022-12-18T01:22:45;37.00;;;12.03;;
2001;SDS011;1003;48.002;7.788;2022-12-18T01:25:13;40.30;;;11.60;;
2001;SDS011;1003;48.002;7.788;2022-12-18T01:27:41;34.20;;;11.67;;
2001;SDS011;1003;48.002;7.788;2022-12-18T01:30:09;41.00;;;11.93;;
2001;SDS011;1003;48.002;7.788;2022-12-18T01:32:37;39.47;;;13.17;;
2001;SDS011;1003;48.002;7.788;2022-12-18T01:35:04;40.23;;;12.77;;
2001;SDS011;1003;48.002;7.788;2022-12-18T01:37:33;39.03;;;12.30;;
2001;SDS011;1003;48.002;7.788;2022-12-18T01:40:00;37.20;;;12.33;;
2001;SDS011;1003;48.002;7.788;2022-12-18T01:42:27;37.90;;;12.93;;
2001;SDS011;1003;48.002;7.788;2022-12-18T01:44:57;36.07;;;12.23;;
2001;SDS011;1003;48.002;7.788;2022-12-18T01:47:30;42.07;;;13.10;;
2001;SDS011;1003;48.002;7.788;2022-12-18T01:50:04;37.10;;;12.27;;
2001;SDS011;1003;48.002;7.788;2022-12-18T01:52:36;39.13;;;12.60;;
2001;SDS011;1003;48.002;7.788;2022-12-18T01:55:06;43.07;;;13.47;;
2001;SDS011;1003;48.002;7.788;2022-12-18T01:57:36;39.03;;;13.07;;
2001;SDS011;1003;48.002;7.788;2022-12-18T02:00:09;38.13;;;12.90;;
2001;SDS011;1003;48.002;7.788;2022-12-18T02:02:41;40.80;;;13.90;;
2001;SDS011;1003;48.002;7.788;2022-12-18T02:05:10;45.67;;;12.77;;
2001;SDS011;1003;48.002;7.788;2022-12-18T02:07:43;43.13;;;13.17;;
2001;SDS011;1003;48.002;7.788;2022-12-18T02:10:24;40.40;;;13.60;;
2001;SDS011;1003;48.002;7.788;2022-12-18T02:12:59;36.90;;;12.17;;
2001;SDS011;1003;48.002;7.788;2022-12-18T02:15:38;39.77;;;12.37;;
2001;SDS011;1003;48.002;7.788;2022-12-18T02:18:17;40.83;;;12.53;;
2001;SDS011;1003;48.002;7.788;2022-12-18T02:20:49;36.30;;;11.97;;
2001;SDS011;1003;48.002;7.788;2022-12-18T02:23:30;37.70;;;12.63;;
2001;SDS011;1003;48.002;7.788;2022-12-18T02:26:19;35.97;;;11.63;;
2001;SDS011;1003;48.002;7.788;2022-12-18T02:28:55;38.57;;;12.30;;
2001;SDS011;1003;48.002;7.788;2022-12-18T02:31:30;36.93;;;12.20;;
2001;SDS011;1003;48.002;7.788;2022-12-18T02:34:05;32.13;;;11.77;;
2001;SDS011;1003;48.002;7.788;2022-12-18T02:36:35;35.03;;;11.97;;
2001;SDS011;1003;48.002;7.788;2022-12-18T02:39:06;34.27;;;11.97;;
2001;SDS011;1003;48.002;7.788;2022-12-18T02:41:39;35.60;;;11.93;;
2001;SDS011;1003;48.002;7.788;2022-12-18T02:44:08;35.23;;;10.97;;
2001;SDS011;1003;48.002;7.788;2022-12-18T02:46:38;29.73;;;10.50;;
2001;SDS011;1003;48.002;7.788;2022-12-18T02:49:11;28.30;;;9.73;;
2001;SDS011;1003;48.002;7.788;2022-12-18T02:52:07;30.60;;;10.63;;
2001;SDS011;1003;48.002;7.788;2022-12-18T02:54:48;29.33;;;10.53;;
2001;SDS011;1003;48.002;7.788;2022-12-18T02:57:29;29.73;;;10.17;;
2001;SDS011;1003;48.002;7.788;2022-12-18T03:00:08;33.53;;;10.63;;
2001;SDS011;1003;48.002;7.788;2022-12-18T03:02:41;28.17;;;10.30;;
2001;SDS011;1003;48.002;7.788;2022-12-18T03:05:18;32.40;;;11.07;;
2001;SDS011;1003;48.002;7.788;2022-12-18T03:07:53;30.47;;;11.33;;
2001;SDS011;1003;48.002;7.788;2022-12-18T03:10:29;31.63;;;11.27;;
2001;SDS011;1003;48.002;7.788;2022-12-18T03:13:02;29.60;;;10.07;;
2001;SDS011;1003;48.002;7.788;2022-12-18T03:15:35;30.83;;;9.60;;
2001;SDS011;1003;48.002;7.788;2022-12-18T03:18:09;29.33;;;10.43;;
2001;SDS011;1003;48.002;7.788;2022-12-18T03:20:42;27.17;;;10.20;;
2001;SDS011;1003;48.002;7.788;2022-12-18T03:23:13;31.73;;;11.90;;
2001;SDS011;1003;48.002;7.788;2022-12-18T03:25:46;34.23;;;10.90;;
2001;SDS011;1003;48.002;7.788;2022-12-18T03:28:21;29.37;;;10.63;;
2001;SDS011;1003;48.002;7.788;2022-12-18T03:30:49;29.77;;;11.70;;
2001;SDS011;1003;48.002;7.788;2022-12-18T03:33:25;34.07;;;10.67;;
2001;SDS011;1003;48.002;7.788;2022-12-18T03:35:58;29.97;;;11.13;;
2001;SDS011;1003;48.002;7.788;2022-12-18T03:38:25;34.27;;;11.07;;
2001;SDS011;1003;48.002;7.788;2022-12-18T03:40:56;35.37;;;11.60;;
2001;SDS011;1003;48.002;7.788;2022-12-18T03:43:34;30.70;;;10.93;;
2001;SDS011;1003;48.002;7.788;2022-12-18T03:46:12;30.57;;;10.83;;
2001;SDS011;1003;48.002;7.788;2022-12-18T03:48:48;33.80;;;11.90;;
2001;SDS011;1003;48.002;7.788;2022-12-18T03:51:23;34.57;;;12.13;;
2001;SDS011;1003;48.002;7.788;2022-12-18T03:53:55;31.80;;;11.63;;
2001;SDS011;1003;48.002;7.788;2022-12-18T03:56:27;31.07;;;11.00;;
2001;SDS011;1003;48.002;7.788;2022-12-18T03:58:59;30.73;;;10.70;;
2001;SDS011;1003;48.002;7.788;2022-12-18T04:01:31;35.10;;;12.60;;
2001;SDS011;1003;48.002;7.788;2022-12-18T04:04:02;34.07;;;12.17;;
2001;SDS011;1003;48.002;7.788;2022-12-18T04:06:32;33.20;;;10.87;;
2001;SDS011;1003;48.002;7.788;2022-12-18T04:09:01;28.23;;;10.83;;
2001;SDS011;1003;48.002;7.788;2022-12-18T04:11:30;33.90;;;11.87;;
2001;SDS011;1003;48.002;7.788;2022-12-18T04:13:57;35.40;;;11.23;;
2001;SDS011;1003;48.002;7.788;2022-12-18T04:16:26;29.57;;;10.97;;
2001;SDS011;1003;48.002;7.788;2022-12-18T04:18:54;29.63;;;11.17;;
2001;SDS011;1003;48.002;7.788;2022-12-18T04:21:21;33.07;;;12.13;;
2001;SDS011;1003;48.002;7.788;2022-12-18T04:23:48;34.20;;;11.73;;
2001;SDS011;1003;48.002;7.788;2022-12-18T04:26:15;30.57;;;10.03;;
2001;SDS011;1003;48.002;7.788;2022-12-18T04:28:43;29.87;;;9.47;;
2001;SDS011;1003;48.002;7.788;2022-12-18T04:31:12;29.80;;;10.47;;
2001;SDS011;1003;48.002;7.788;2022-12-18T04:33:39;32.37;;;11.20;;
2001;SDS011;1003;48.002;7.788;2022-12-18T04:36:07;33.07;;;11.77;;
2001;SDS011;1003;48.002;7.788;2022-12-18T04:38:34;33.63;;;11.53;;
2001;SDS011;1003;48.002;7.788;2022-12-18T04:41:01;35.40;;;11.43;;
2001;SDS011;1003;48.002;7.788;2022-12-18T04:43:28;36.23;;;12.17;;
2001;SDS011;1003;48.002;7.788;2022-12-18T04:46:00;30.83;;;10.63;;
2001;SDS011;1003;48.002;7.788;2022-12-18T04:48:30;30.00;;;10.13;;
2001;SDS011;1003;48.002;7.788;2022-12-18T04:50:58;34.27;;;11.87;;
2001;SDS011;1003;48.002;7.788;2022-12-18T04:53:25;29.07;;;11.03;;
2001;SDS011;1003;48.002;7.788;2022-12-18T04:56:01;33.87;;;11.83;;
2001;SDS011;1003;48.002;7.788;2022-12-18T04:58:30;33.33;;;12.20;;
2001;SDS011;1003;48.002;7.788;2022-12-18T05:00:57;37.30;;;13.20;;
2001;SDS011;1003;48.002;7.788;2022-12-18T05:03:25;35.23;;;11.73;;
2001;SDS011;1003;48.002;7.788;2022-12-18T05:05:53;32.10;;;10.83;;
2001;SDS011;1003;48.002;7.788;2022-12-18T05:08:20;30.43;;;11.50;;
2001;SDS011;1003;48.002;7.788;2022-12-18T05:10:48;35.20;;;11.63;;
2001;SDS011;1003;48.002;7.788;2022-12-18T05:13:15;37.30;;;12.17;;
2001;SDS011;1003;48.002;7.788;2022-12-18T05:15:42;36.07;;;12.40;;
2001;SDS011;1003;48.002;7.788;2022-12-18T05:18:09;30.40;;;12.27;;
2001;SDS011;1003;48.002;7.788;2022-12-18T05:20:36;29.40;;;11.20;;
2001;SDS011;1003;48.002;7.788;2022-12-18T05:23:04;37.77;;;12.43;;
2001;SDS011;1003;48.002;7.788;2022-12-18T05:25:31;42.67;;;12.87;;
2001;SDS011;1003;48.002;7.788;2022-12-18T05:27:58;31.97;;;11.80;;
2001;SDS011;1003;48.002;7.788;2022-12-18T05:30:25;40.30;;;12.90;;
2001;SDS011;1003;48.002;7.788;2022-12-18T05:32:53;33.00;;;11.10;;
2001;SDS011;1003;48.002;7.788;2022-12-18T05:35:20;32.73;;;10.80;;
2001;SDS011;1003;48.002;7.788;2022-12-18T05:37:47;36.70;;;12.13;;
2001;SDS011;1003;48.002;7.788;2022-12-18T05:40:16;34.10;;;11.53;;
2001;SDS011;1003;48.002;7.788;2022-12-18T05:42:43;30.47;;;11.97;;
2001;SDS011;1003;48.002;7.788;2022-12-18T05:45:10;32.60;;;11.00;;
2001;SDS011;1003;48.002;7.788;2022-12-18T05:47:37;28.43;;;10.77;;
2001;SDS011;1003;48.002;7.788;2022-12-18T05:50:04;31.67;;;11.20;;
2001;SDS011;1003;48.002;7.788;2022-12-18T05:52:33;33.00;;;12.00;;
2001;SDS011;1003;48.002;7.788;2022-12-18T05:55:00;28.50;;;11.20;;
2001;SDS011;1003;48.002;7.788;2022-12-18T05:57:29;38.00;;;13.40;;
2001;SDS011;1003;48.002;7.788;2022-12-18T05:59:56;34.77;;;11.60;;
2001;SDS011;1003;48.002;7.788;2022-12-18T06:02:23;36.50;;;11.40;;
2001;SDS011;1003;48.002;7.788;2022-12-18T06:04:50;31.90;;;11.30;;
2001;SDS011;1003;48.002;7.788;2022-12-18T06:07:17;34.13;;;11.47;;
2001;SDS011;1003;48.002;7.788;2022-12-18T06:09:44;34.17;;;12.23;;
2001;SDS011;1003;48.002;7.788;2022-12-18T06:12:11;33.67;;;10.97;;
2001;SDS011;1003;48.002;7.788;2022-12-18T06:14:39;36.70;;;12.83;;
2001;SDS011;1003;48.002;7.788;2022-12-18T06:17:06;34.40;;;13.03;;
2001;SDS011;1003;48.002;7.788;2022-12-18T06:19:33;31.07;;;11.60;;
2001;SDS011;1003;48.002;7.788;2022-12-18T06:22:00;34.73;;;11.70;;
2001;SDS011;1003;48.002;7.788;2022-12-18T06:24:27;31.73;;;11.47;;
2001;SDS011;1003;48.002;7.788;2022-12-18T06:26:54;32.50;;;11.90;;
2001;SDS011;1003;48.002;7.788;2022-12-18T06:29:21;31.70;;;11.33;;
2001;SDS011;1003;48.002;7.788;2022-12-18T06:31:50;29.57;;;11.20;;
2001;SDS011;1003;48.002;7.788;2022-12-18T06:34:17;31.27;;;11.17;;
2001;SDS011;1003;48.002;7.788;2022-12-18T06:36:44;32.37;;;11.80;;
2001;SDS011;1003;48.002;7.788;2022-12-18T06:39:11;27.60;;;11.17;;
2001;SDS011;1003;48.002;7.788;2022-12-18T06:41:38;30.97;;;11.47;;
2001;SDS011;1003;48.002;7.788;2022-12-18T06:44:05;28.77;;;12.00;;
2001;SDS011;1003;48.002;7.788;2022-12-18T06:46:32;34.67;;;11.97;;
2001;SDS011;1003;48.002;7.788;2022-12-18T06:49:00;34.10;;;11.30;;
2001;SDS011;1003;48.002;7.788;2022-12-18T06:51:27;36.40;;;11.03;;
2001;SDS011;1003;48.002;7.788;2022-12-18T06:53:54;35.57;;;11.07;;
2001;SDS011;1003;48.002;7.788;2022-12-18T06:56:21;31.40;;;11.57;;
2001;SDS011;1003;48.002;7.788;2022-12-18T06:58:49;30.43;;;11.57;;
2001;SDS011;1003;48.002;7.788;2022-12-18T07:01:16;31.47;;;10.30;;
2001;SDS011;1003;48.002;7.788;2022-12-18T07:03:43;31.37;;;10.70;;
2001;SDS011;1003;48.002;7.788;2022-12-18T07:06:15;25.20;;;9.87;;
2001;SDS011;1003;48.002;7.788;2022-12-18T07:08:46;30.03;;;9.60;;
2001;SDS011;1003;48.002;7.788;2022-12-18T07:11:15;27.83;;;9.87;;
2001;SDS011;1003;48.002;7.788;2022-12-18T07:13:44;32.77;;;10.13;;
2001;SDS011;1003;48.002;7.788;2022-12-18T07:16:14;27.07;;;10.20;;
2001;SDS011;1003;48.002;7.788;2022-12-18T07:18:44;28.80;;;10.60;;
2001;SDS011;1003;48.002;7.788;2022-12-18T07:21:14;20.77;;;9.27;;
2001;SDS011;1003;48.002;7.788;2022-12-18T07:23:45;23.40;;;9.43;;
2001;SDS011;1003;48.002;7.788;2022-12-18T07:26:13;24.40;;;9.90;;
2001;SDS011;1003;48.002;7.788;2022-12-18T07:28:42;29.13;;;9.93;;
2001;SDS011;1003;48.002;7.788;2022-12-18T07:31:10;29.30;;;10.43;;
2001;SDS011;1003;48.002;7.788;2022-12-18T07:33:40;28.77;;;10.90;;
2001;SDS011;1003;48.002;7.788;2022-12-18T07:36:08;21.70;;;9.73;;
2001;SDS011;1003;48.002;7.788;2022-12-18T07:38:38;28.13;;;9.70;;
2001;SDS011;1003;48.002;7.788;2022-12-18T07:41:06;29.03;;;11.47;;
2001;SDS011;1003;48.002;7.788;2022-12-18T07:43:35;24.57;;;9.67;;
2001;SDS011;1003;48.002;7.788;2022-12-18T07:46:04;30.83;;;10.00;;
2001;SDS011;1003;48.002;7.788;2022-12-18T07:48:31;25.63;;;10.00;;
2001;SDS011;1003;48.002;7.788;2022-12-18T07:50:59;33.37;;;10.93;;
2001;SDS011;1003;48.002;7.788;2022-12-18T07:53:26;30.33;;;9.60;;
2001;SDS011;1003;48.002;7.788;2022-12-18T07:55:56;38.70;;;11.43;;
2001;SDS011;1003;48.002;7.788;2022-12-18T07:58:23;32.33;;;11.47;;
2001;SDS011;1003;48.002;7.788;2022-12-18T08:00:50;32.00;;;12.20;;
2001;SDS011;1003;48.002;7.788;2022-12-18T08:03:18;32.90;;;11.10;;
2001;SDS011;1003;48.002;7.788;2022-12-18T08:05:46;31.30;;;11.50;;
2001;SDS011;1003;48.002;7.788;2022-12-18T08:08:15;35.27;;;11.27;;
2001;SDS011;1003;48.002;7.788;2022-12-18T08:10:42;32.23;;;10.90;;
2001;SDS011;1003;48.002;7.788;2022-12-18T08:13:11;30.07;;;11.90;;
2001;SDS011;1003;48.002;7.788;2022-12-18T08:15:38;25.20;;;10.47;;
2001;SDS011;1003;48.002;7.788;2022-12-18T08:18:05;27.83;;;11.27;;
2001;SDS011;1003;48.002;7.788;2022-12-18T08:20:32;29.60;;;11.03;;
2001;SDS011;1003;48.002;7.788;2022-12-18T08:22:59;41.93;;;11.93;;
2001;SDS011;1003;48.002;7.788;2022-12-18T08:25:26;31.07;;;10.73;;
2001;SDS011;1003;48.002;7.788;2022-12-18T08:27:53;26.07;;;10.93;;
2001;SDS011;1003;48.002;7.788;2022-12-18T08:30:23;27.27;;;10.03;;
2001;SDS011;1003;48.002;7.788;2022-12-18T08:32:51;29.80;;;13.10;;
2001;SDS011;1003;48.002;7.788;2022-12-18T08:35:19;28.40;;;11.37;;
2001;SDS011;1003;48.002;7.788;2022-12-18T08:37:46;27.87;;;11.20;;
2001;SDS011;1003;48.002;7.788;2022-12-18T08:40:13;30.33;;;11.33;;
2001;SDS011;1003;48.002;7.788;2022-12-18T08:42:40;26.13;;;10.53;;
2001;SDS011;1003;48.002;7.788;2022-12-18T08:45:26;29.33;;;11.83;;
2001;SDS011;1003;48.002;7.788;2022-12-18T08:47:54;31.20;;;12.47;;
2001;SDS011;1003;48.002;7.788;2022-12-18T08:50:21;31.47;;;12.07;;
2001;SDS011;1003;48.002;7.788;2022-12-18T08:52:48;29.83;;;11.83;;
2001;SDS011;1003;48.002;7.788;2022-12-18T08:55:15;31.10;;;11.63;;
2001;SDS011;1003;48.002;7.788;2022-12-18T08:57:42;26.83;;;10.80;;
2001;SDS011;1003;48.002;7.788;2022-12-18T09:00:10;34.03;;;12.00;;
2001;SDS011;1003;48.002;7.788;2022-12-18T09:02:40;30.43;;;10.97;;
2001;SDS011;1003;48.002;7.788;2022-12-18T09:05:07;28.80;;;10.97;;
2001;SDS011;1003;48.002;7.788;2022-12-18T09:07:35;29.30;;;11.57;;
2001;SDS011;1003;48.002;7.788;2022-12-18T09:10:02;29.13;;;11.60;;
2001;SDS011;1003;48.002;7.788;2022-12-18T09:12:30;28.13;;;11.40;;
2001;SDS011;1003;48.002;7.788;2022-12-18T09:14:57;23.60;;;9.97;;
2001;SDS011;1003;48.002;7.788;2022-12-18T09:17:25;30.10;;;11.97;;
2001;SDS011;1003;48.002;7.788;2022-12-18T09:19:53;28.43;;;10.73;;
2001;SDS011;1003;48.002;7.788;2022-12-18T09:22:20;29.07;;;10.63;;
2001;SDS011;1003;48.002;7.788;2022-12-18T09:24:48;32.43;;;11.27;;
2001;SDS011;1003;48.002;7.788;2022-12-18T09:27:15;27.80;;;10.33;;
2001;SDS011;1003;48.002;7.788;2022-12-18T09:29:42;27.40;;;11.87;;
2001;SDS011;1003;48.002;7.788;2022-12-18T09:32:09;28.10;;;10.47;;
2001;SDS011;1003;48.002;7.788;2022-12-18T09:34:36;25.63;;;10.50;;
2001;SDS011;1003;48.002;7.788;2022-12-18T09:37:05;28.43;;;11.63;;
2001;SDS011;1003;48.002;7.788;2022-12-18T09:39:32;30.63;;;11.87;;
2001;SDS011;1003;48.002;7.788;2022-12-18T09:42:02;31.30;;;10.57;;
2001;SDS011;1003;48.002;7.788;2022-12-18T09:44:32;27.37;;;11.27;;
2001;SDS011;1003;48.002;7.788;2022-12-18T09:47:09;28.80;;;11.37;;
2001;SDS011;1003;48.002;7.788;2022-12-18T09:49:44;30.37;;;11.07;;
2001;SDS011;1003;48.002;7.788;2022-12-18T09:52:16;28.53;;;10.97;;
2001;SDS011;1003;48.002;7.788;2022-12-18T09:54:50;28.77;;;11.07;;
2001;SDS011;1003;48.002;7.788;2022-12-18T09:57:24;29.97;;;11.70;;
2001;SDS011;1003;48.002;7.788;2022-12-18T09:59:53;24.30;;;10.60;;
2001;SDS011;1003;48.002;7.788;2022-12-18T10:02:29;28.40;;;10.77;;
2001;SDS011;1003;48.002;7.788;2022-12-18T10:05:02;29.27;;;11.13;;
2001;SDS011;1003;48.002;7.788;2022-12-18T10:07:43;28.30;;;10.67;;
2001;SDS011;1003;48.002;7.788;2022-12-18T10:10:27;25.87;;;10.93;;
2001;SDS011;1003;48.002;7.788;2022-12-18T10:13:08;31.97;;;13.43;;
2001;SDS011;1003;48.002;7.788;2022-12-18T10:15:51;32.70;;;12.97;;
2001;SDS011;1003;48.002;7.788;2022-12-18T10:18:39;26.03;;;12.07;;
2001;SDS011;1003;48.002;7.788;2022-12-18T10:21:38;28.67;;;12.13;;
2001;SDS011;1003;48.002;7.788;2022-12-18T10:24:21;29.43;;;11.93;;
2001;SDS011;1003;48.002;7.788;2022-12-18T10:27:06;28.40;;;12.83;;
2001;SDS011;1003;48.002;7.788;2022-12-18T10:29:41;29.80;;;12.27;;
2001;SDS011;1003;48.002;7.788;2022-12-18T10:32:13;30.97;;;12.50;;
2001;SDS011;1003;48.002;7.788;2022-12-18T10:34:47;24.70;;;11.23;;
2001;SDS011;1003;48.002;7.788;2022-12-18T10:37:16;32.40;;;13.43;;
2001;SDS011;1003;48.002;7.788;2022-12-18T10:39:47;30.23;;;12.63;;
2001;SDS011;1003;48.002;7.788;2022-12-18T10:42:36;30.17;;;13.20;;
2001;SDS011;1003;48.002;7.788;2022-12-18T10:45:11;28.27;;;12.27;;
2001;SDS011;1003;48.002;7.788;2022-12-18T10:47:42;26.40;;;12.33;;
2001;SDS011;1003;48.002;7.788;2022-12-18T10:50:18;30.57;;;12.63;;
2001;SDS011;1003;48.002;7.788;2022-12-18T10:52:57;29.53;;;12.83;;
2001;SDS011;1003;48.002;7.788;2022-12-18T10:55:30;29.87;;;13.60;;
2001;SDS011;1003;48.002;7.788;2022-12-18T10:58:13;28.73;;;13.67;;
2001;SDS011;1003;48.002;7.788;2022-12-18T11:01:01;30.50;;;13.83;;
2001;SDS011;1003;48.002;7.788;2022-12-18T11:03:34;31.43;;;13.60;;
2001;SDS011;1003;48.002;7.788;2022-12-18T11:06:05;27.80;;;11.00;;
2001;SDS011;1003;48.002;7.788;2022-12-18T11:08:36;28.43;;;11.27;;
2001;SDS011;1003;48.002;7.788;2022-12-18T11:11:07;26.43;;;12.07;;
2001;SDS011;1003;48.002;7.788;2022-12-18T11:13:47;29.00;;;12.63;;
2001;SDS011;1003;48.002;7.788;2022-12-18T11:16:27;26.70;;;13.40;;
2001;SDS011;1003;48.002;7.788;2022-12-18T11:19:13;28.43;;;11.93;;
2001;SDS011;1003;48.002;7.788;2022-12-18T11:21:52;28.83;;;12.53;;
2001;SDS011;1003;48.002;7.788;2022-12-18T11:24:20;30.13;;;12.43;;
2001;SDS011;1003;48.002;7.788;2022-12-18T11:26:55;27.67;;;12.13;;
2001;SDS011;1003;48.002;7.788;2022-12-18T11:29:28;29.50;;;11.83;;
2001;SDS011;1003;48.002;7.788;2022-12-18T11:32:19;31.43;;;12.70;;
2001;SDS011;1003;48.002;7.788;2022-12-18T11:35:00;29.40;;;11.77;;
2001;SDS011;1003;48.002;7.788;2022-12-18T11:37:37;30.87;;;12.17;;
2001;SDS011;1003;48.002;7.788;2022-12-18T11:40:10;29.87;;;11.90;;
2001;SDS011;1003;48.002;7.788;2022-12-18T11:42:48;29.93;;;11.93;;
2001;SDS011;1003;48.002;7.788;2022-12-18T11:45:25;25.10;;;11.20;;
2001;SDS011;1003;48.002;7.788;2022-12-18T11:48:01;24.97;;;11.63;;
2001;SDS011;1003;48.002;7.788;2022-12-18T11:50:40;28.00;;;11.53;;
2001;SDS011;1003;48.002;7.788;2022-12-18T11:53:14;31.03;;;12.27;;
2001;SDS011;1003;48.002;7.788;2022-12-18T11:55:51;31.23;;;12.40;;
2001;SDS011;1003;48.002;7.788;2022-12-18T11:58:39;27.17;;;11.83;;
2001;SDS011;1003;48.002;7.788;2022-12-18T12:01:23;31.77;;;13.00;;
2001;SDS011;1003;48.002;7.788;2022-12-18T12:07:12;25.30;;;11.67;;
2001;SDS011;1003;48.002;7.788;2022-12-18T12:09:56;30.10;;;12.17;;
2001;SDS011;1003;48.002;7.788;2022-12-18T12:12:38;31.53;;;12.50;;
2001;SDS011;1003;48.002;7.788;2022-12-18T12:15:27;27.57;;;11.37;;
2001;SDS011;1003;48.002;7.788;2022-12-18T12:18:07;29.57;;;12.27;;
2001;SDS011;1003;48.002;7.788;2022-12-18T12:20:52;29.07;;;11.43;;
2001;SDS011;1003;48.002;7.788;2022-12-18T12:23:32;29.20;;;11.53;;
2001;SDS011;1003;48.002;7.788;2022-12-18T12:26:13;34.03;;;12.33;;
2001;SDS011;1003;48.002;7.788;2022-12-18T12:32:00;28.30;;;12.13;;
2001;SDS011;1003;48.002;7.788;2022-12-18T12:34:45;31.00;;;12.40;;
2001;SDS011;1003;48.002;7.788;2022-12-18T12:37:33;29.73;;;11.43;;
2001;SDS011;1003;48.002;7.788;2022-12-18T12:40:17;31.57;;;12.50;;
2001;SDS011;1003;48.002;7.788;2022-12-18T12:42:47;28.33;;;12.83;;
2001;SDS011;1003;48.002;7.788;2022-12-18T12:45:42;26.80;;;12.07;;
2001;SDS011;1003;48.002;7.788;2022-12-18T12:48:19;28.77;;;12.20;;
2001;SDS011;1003;48.002;7.788;2022-12-18T12:50:59;26.97;;;12.20;;
2001;SDS011;1003;48.002;7.788;2022-12-18T12:53:31;30.03;;;13.07;;
2001;SDS011;1003;48.002;7.788;2022-12-18T12:56:04;31.27;;;12.93;;
2001;SDS011;1003;48.002;7.788;2022-12-18T12:58:34;28.97;;;12.63;;
2001;SDS011;1003;48.002;7.788;2022-12-18T13:01:16;29.80;;;12.73;;
2001;SDS011;1003;48.002;7.788;2022-12-18T13:03:58;29.80;;;11.77;;
2001;SDS011;1003;48.002;7.788;2022-12-18T13:06:41;25.43;;;11.40;;
2001;SDS011;1003;48.002;7.788;2022-12-18T13:09:16;27.70;;;12.07;;
2001;SDS011;1003;48.002;7.788;2022-12-18T13:11:43;28.83;;;12.73;;
2001;SDS011;1003;48.002;7.788;2022-12-18T13:14:31;27.93;;;11.50;;
2001;SDS011;1003;48.002;7.788;2022-12-18T13:17:14;31.17;;;13.30;;
2001;SDS011;1003;48.002;7.788;2022-12-18T13:20:05;28.83;;;11.73;;
2001;SDS011;1003;48.002;7.788;2022-12-18T13:22:37;24.83;;;11.17;;
2001;SDS011;1003;48.002;7.788;2022-12-18T13:25:30;27.33;;;12.73;;
2001;SDS011;1003;48.002;7.788;2022-12-18T13:28:04;28.97;;;12.57;;
2001;SDS011;1003;48.002;7.788;2022-12-18T13:30:47;32.13;;;13.53;;
2001;SDS011;1003;48.002;7.788;2022-12-18T13:36:16;30.17;;;13.17;;
2001;SDS011;1003;48.002;7.788;2022-12-18T13:45:37;27.17;;;12.23;;
2001;SDS011;1003;48.002;7.788;2022-12-18T13:48:19;25.70;;;11.40;;
2001;SDS011;1003;48.002;7.788;2022-12-18T13:50:52;26.30;;;12.83;;
2001;SDS011;1003;48.002;7.788;2022-12-18T13:53:27;24.77;;;12.40;;
2001;SDS011;1003;48.002;7.788;2022-12-18T13:56:01;25.73;;;12.63;;
2001;SDS011;1003;48.002;7.788;2022-12-18T13:58:29;27.23;;;13.03;;
2001;SDS011;1003;48.002;7.788;2022-12-18T14:00:56;27.00;;;12.60;;
2001;SDS011;1003;48.002;7.788;2022-12-18T14:03:25;27.93;;;13.30;;
2001;SDS011;1003;48.002;7.788;2022-12-18T14:06:03;32.50;;;13.90;;
2001;SDS011;1003;48.002;7.788;2022-12-18T14:08:39;27.43;;;12.80;;
2001;SDS011;1003;48.002;7.788;2022-12-18T14:13:48;27.97;;;12.43;;
2001;SDS011;1003;48.002;7.788;2022-12-18T14:16:16;25.07;;;12.60;;
2001;SDS011;1003;48.002;7.788;2022-12-18T14:18:44;28.70;;;13.57;;
2001;SDS011;1003;48.002;7.788;2022-12-18T14:21:20;26.83;;;12.63;;
2001;SDS011;1003;48.002;7.788;2022-12-18T14:24:04;25.10;;;12.57;;
2001;SDS011;1003;48.002;7.788;2022-12-18T14:26:39;23.40;;;12.13;;
2001;SDS011;1003;48.002;7.788;2022-12-18T14:32:05;34.43;;;15.40;;
2001;SDS011;1003;48.002;7.788;2022-12-18T14:34:39;26.30;;;12.87;;
2001;SDS011;1003;48.002;7.788;2022-12-18T14:37:08;27.03;;;12.97;;
2001;SDS011;1003;48.002;7.788;2022-12-18T14:39:38;24.07;;;12.40;;
2001;SDS011;1003;48.002;7.788;2022-12-18T14:42:05;32.27;;;14.70;;
2001;SDS011;1003;48.002;7.788;2022-12-18T14:44:36;30.63;;;13.43;;
2001;SDS011;1003;48.002;7.788;2022-12-18T14:47:03;28.63;;;13.90;;
2001;SDS011;1003;48.002;7.788;2022-12-18T14:49:31;30.60;;;13.60;;
2001;SDS011;1003;48.002;7.788;2022-12-18T14:52:02;31.10;;;13.33;;
2001;SDS011;1003;48.002;7.788;2022-12-18T14:54:33;32.10;;;14.53;;
2001;SDS011;1003;48.002;7.788;2022-12-18T14:57:20;31.47;;;14.60;;
2001;SDS011;1003;48.002;7.788;2022-12-18T14:59:50;32.03;;;15.07;;
2001;SDS011;1003;48.002;7.788;2022-12-18T15:02:18;29.83;;;13.50;;
2001;SDS011;1003;48.002;7.788;2022-12-18T15:04:59;28.57;;;13.03;;
2001;SDS011;1003;48.002;7.788;2022-12-18T15:07:39;34.43;;;15.40;;
2001;SDS011;1003;48.002;7.788;2022-12-18T15:10:12;29.27;;;14.10;;
2001;SDS011;1003;48.002;7.788;2022-12-18T15:12:42;28.90;;;13.80;;
2001;SDS011;1003;48.002;7.788;2022-12-18T15:18:13;34.33;;;17.33;;
2001;SDS011;1003;48.002;7.788;2022-12-18T15:20:45;35.10;;;16.60;;
2001;SDS011;1003;48.002;7.788;2022-12-18T15:23:16;31.77;;;14.87;;
2001;SDS011;1003;48.002;7.788;2022-12-18T15:25:49;29.33;;;14.40;;
2001;SDS011;1003;48.002;7.788;2022-12-18T15:28:23;27.50;;;14.40;;
2001;SDS011;1003;48.002;7.788;2022-12-18T15:31:02;28.73;;;13.97;;
2001;SDS011;1003;48.002;7.788;2022-12-18T15:33:33;29.27;;;14.83;;
2001;SDS011;1003;48.002;7.788;2022-12-18T15:36:03;29.77;;;14.33;;
2001;SDS011;1003;48.002;7.788;2022-12-18T15:38:35;27.23;;;13.27;;
2001;SDS011;1003;48.002;7.788;2022-12-18T15:41:04;31.27;;;14.47;;